createdAt,value
2018-10-07T00:00:45.239Z,5.03
2018-10-07T00:03:13.940Z,4.77
2018-10-07T00:05:43.243Z,9.20
2018-10-07T00:08:12.523Z,10.23
2018-10-07T00:10:41.461Z,6.07
2018-10-07T00:13:09.997Z,6.00
2018-10-07T00:15:38.630Z,6.10
2018-10-07T00:18:07.474Z,4.70
2018-10-07T00:20:36.566Z,5.00
2018-10-07T00:23:05.306Z,5.13
2018-10-07T00:25:34.049Z,5.20
2018-10-07T00:28:03.252Z,6.40
2018-10-07T00:30:32.527Z,7.37
2018-10-07T00:33:01.259Z,9.47
2018-10-07T00:35:29.902Z,9.10
2018-10-07T00:37:58.512Z,9.33
2018-10-07T00:40:27.182Z,6.73
2018-10-07T00:42:55.776Z,8.47
2018-10-07T00:45:24.565Z,6.20
2018-10-07T00:47:53.448Z,7.47
2018-10-07T00:50:22.436Z,8.57
2018-10-07T00:52:51.175Z,5.97
2018-10-07T00:55:26.455Z,6.37
2018-10-07T00:57:55.010Z,5.40
2018-10-07T01:00:24.694Z,5.20
2018-10-07T01:02:54.244Z,4.90
2018-10-07T01:05:23.058Z,7.67
2018-10-07T01:07:52.129Z,5.17
2018-10-07T01:10:20.942Z,5.53
2018-10-07T01:12:49.554Z,4.43
2018-10-07T01:15:18.857Z,7.77
2018-10-07T01:17:47.647Z,6.60
2018-10-07T01:20:16.434Z,4.90
2018-10-07T01:22:45.171Z,6.13
2018-10-07T01:25:14.168Z,5.60
2018-10-07T01:27:42.848Z,8.73
2018-10-07T01:30:11.429Z,5.20
2018-10-07T01:32:40.565Z,8.13
2018-10-07T01:35:09.373Z,8.97
2018-10-07T01:37:38.008Z,8.20
2018-10-07T01:40:06.759Z,6.80
2018-10-07T01:42:35.348Z,7.43
2018-10-07T01:45:04.038Z,8.80
2018-10-07T01:47:33.289Z,6.90
2018-10-07T01:50:02.713Z,4.67
2018-10-07T01:52:31.387Z,4.60
2018-10-07T01:55:00.193Z,5.47
2018-10-07T01:57:29.453Z,8.27
2018-10-07T01:59:58.633Z,8.73
2018-10-07T02:02:27.358Z,9.33
2018-10-07T02:04:56.660Z,9.33
2018-10-07T02:07:25.369Z,8.30
2018-10-07T02:09:54.068Z,7.50
2018-10-07T02:12:22.915Z,6.43
2018-10-07T02:14:51.624Z,5.10
2018-10-07T02:17:20.141Z,8.30
2018-10-07T02:19:49.514Z,8.17
2018-10-07T02:22:18.366Z,10.57
2018-10-07T02:24:46.892Z,8.90
2018-10-07T02:27:15.937Z,9.30
2018-10-07T02:29:44.473Z,9.80
2018-10-07T02:32:12.964Z,10.13
2018-10-07T02:34:41.572Z,9.07
2018-10-07T02:37:10.428Z,8.73
2018-10-07T02:39:38.965Z,9.50
2018-10-07T02:42:07.722Z,10.40
2018-10-07T02:44:37.201Z,8.77
2018-10-07T02:47:05.915Z,10.20
2018-10-07T02:49:34.623Z,6.80
2018-10-07T02:52:03.940Z,4.30
2018-10-07T02:54:33.533Z,5.13
2018-10-07T02:57:02.309Z,6.53
2018-10-07T02:59:30.957Z,8.97
2018-10-07T03:01:59.697Z,7.10
2018-10-07T03:04:28.951Z,10.90
2018-10-07T03:06:57.449Z,8.13
2018-10-07T03:09:26.869Z,10.00
2018-10-07T03:11:55.550Z,10.17
2018-10-07T03:14:24.185Z,7.30
2018-10-07T03:16:52.896Z,9.07
2018-10-07T03:19:21.697Z,9.90
2018-10-07T03:21:50.873Z,10.57
2018-10-07T03:24:19.726Z,10.37
2018-10-07T03:26:48.539Z,11.23
2018-10-07T03:29:17.120Z,9.63
2018-10-07T03:31:45.610Z,9.83
2018-10-07T03:34:14.571Z,9.77
2018-10-07T03:36:43.254Z,6.83
2018-10-07T03:39:11.930Z,5.20
2018-10-07T03:41:41.320Z,5.20
2018-10-07T03:44:10.070Z,6.27
2018-10-07T03:46:39.023Z,6.70
2018-10-07T03:49:07.530Z,7.03
2018-10-07T03:51:36.034Z,9.03
2018-10-07T03:54:04.869Z,10.50
2018-10-07T03:56:33.498Z,6.90
2018-10-07T03:59:02.434Z,4.73
2018-10-07T04:01:31.550Z,7.47
2018-10-07T04:04:00.417Z,9.10
2018-10-07T04:06:29.029Z,5.97
2018-10-07T04:08:57.568Z,4.40
2018-10-07T04:11:26.257Z,8.40
2018-10-07T04:13:54.868Z,5.70
2018-10-07T04:16:23.547Z,5.20
2018-10-07T04:18:52.282Z,8.33
2018-10-07T04:21:21.497Z,6.30
2018-10-07T04:23:50.129Z,7.30
2018-10-07T04:26:18.774Z,7.87
2018-10-07T04:28:47.637Z,8.73
2018-10-07T04:31:17.102Z,9.13
2018-10-07T04:33:45.886Z,9.47
2018-10-07T04:36:14.586Z,9.80
2018-10-07T04:38:43.868Z,10.50
2018-10-07T04:41:12.662Z,6.67
2018-10-07T04:43:41.348Z,5.23
2018-10-07T04:46:10.170Z,4.20
2018-10-07T04:48:39.128Z,8.10
2018-10-07T04:51:08.434Z,7.93
2018-10-07T04:53:37.299Z,6.00
2018-10-07T04:56:06.514Z,4.20
2018-10-07T04:58:35.322Z,3.87
2018-10-07T05:01:04.671Z,4.40
2018-10-07T05:03:33.248Z,9.43
2018-10-07T05:06:02.016Z,8.73
2018-10-07T05:08:30.673Z,9.63
2018-10-07T05:11:02.089Z,8.17
2018-10-07T05:13:38.397Z,6.10
2018-10-07T05:16:09.255Z,6.07
2018-10-07T05:18:37.803Z,5.67
2018-10-07T05:21:12.106Z,4.50
2018-10-07T05:23:49.547Z,5.70
2018-10-07T05:26:20.700Z,8.07
2018-10-07T05:28:49.470Z,9.00
2018-10-07T05:31:18.760Z,7.27
2018-10-07T05:33:47.597Z,5.77
2018-10-07T05:36:16.505Z,6.00
2018-10-07T05:38:49.802Z,3.87
2018-10-07T05:41:18.438Z,7.40
2018-10-07T05:43:47.010Z,8.60
2018-10-07T05:46:16.134Z,7.83
2018-10-07T05:48:45.076Z,6.10
2018-10-07T05:51:13.748Z,4.33
2018-10-07T05:53:43.198Z,3.40
2018-10-07T05:56:11.897Z,3.13
2018-10-07T05:58:40.588Z,8.10
2018-10-07T06:01:20.638Z,4.53
2018-10-07T06:04:57.924Z,4.70
2018-10-07T06:07:28.203Z,3.80
2018-10-07T06:09:57.008Z,5.47
2018-10-07T06:12:25.753Z,3.90
2018-10-07T06:16:01.548Z,3.80
2018-10-07T06:18:30.350Z,3.53
2018-10-07T06:20:59.041Z,5.40
2018-10-07T06:23:27.978Z,4.40
2018-10-07T06:25:57.022Z,3.70
2018-10-07T06:28:25.784Z,4.20
2018-10-07T06:30:54.542Z,3.93
2018-10-07T06:33:24.283Z,8.27
2018-10-07T06:35:52.969Z,5.13
2018-10-07T06:38:22.263Z,3.83
2018-10-07T06:40:50.976Z,4.30
2018-10-07T06:43:19.610Z,5.70
2018-10-07T06:45:48.483Z,5.47
2018-10-07T06:48:16.969Z,7.40
2018-10-07T06:50:45.768Z,5.90
2018-10-07T06:53:14.594Z,6.60
2018-10-07T06:55:43.570Z,8.87
2018-10-07T06:58:12.679Z,8.37
2018-10-07T07:00:41.418Z,6.53
2018-10-07T07:03:10.128Z,5.20
2018-10-07T07:05:39.663Z,5.27
2018-10-07T07:08:08.714Z,5.63
2018-10-07T07:10:37.335Z,7.73
2018-10-07T07:13:06.420Z,7.20
2018-10-07T07:15:35.010Z,8.40
2018-10-07T07:18:03.527Z,9.17
2018-10-07T07:20:32.205Z,6.70
2018-10-07T07:23:00.927Z,5.90
2018-10-07T07:25:30.139Z,9.63
2018-10-07T07:27:58.744Z,9.33
2018-10-07T07:30:28.027Z,17.30
2018-10-07T07:32:56.787Z,10.80
2018-10-07T07:35:25.329Z,7.27
2018-10-07T07:37:54.237Z,12.33
2018-10-07T07:40:22.857Z,10.03
2018-10-07T07:42:52.026Z,7.67
2018-10-07T07:45:20.678Z,10.20
2018-10-07T07:47:49.310Z,6.83
2018-10-07T07:50:18.118Z,7.47
2018-10-07T07:52:47.581Z,8.53
2018-10-07T07:55:16.528Z,9.23
2018-10-07T07:57:45.218Z,9.40
2018-10-07T08:00:14.053Z,7.03
2018-10-07T08:02:42.684Z,9.63
2018-10-07T08:05:11.295Z,6.33
2018-10-07T08:07:40.116Z,9.37
2018-10-07T08:10:09.218Z,8.37
2018-10-07T08:12:38.158Z,8.90
2018-10-07T08:15:06.868Z,9.73
2018-10-07T08:17:35.536Z,6.77
2018-10-07T08:20:04.349Z,6.17
2018-10-07T08:22:33.181Z,7.27
2018-10-07T08:25:03.018Z,7.30
2018-10-07T08:27:32.318Z,6.63
2018-10-07T08:30:01.048Z,7.13
2018-10-07T08:32:30.645Z,5.40
2018-10-07T08:34:59.415Z,5.43
2018-10-07T08:37:27.936Z,4.90
2018-10-07T08:39:56.464Z,4.70
2018-10-07T08:42:24.992Z,4.03
2018-10-07T08:44:53.646Z,3.90
2018-10-07T08:47:22.167Z,4.20
2018-10-07T08:49:50.861Z,5.07
2018-10-07T08:52:20.061Z,4.40
2018-10-07T08:54:48.977Z,3.53
2018-10-07T08:57:17.481Z,3.97
2018-10-07T08:59:46.096Z,4.70
2018-10-07T09:02:15.899Z,4.80
2018-10-07T09:04:44.477Z,4.50
2018-10-07T09:07:13.114Z,4.47
2018-10-07T09:09:41.847Z,5.20
2018-10-07T09:12:10.357Z,4.97
2018-10-07T09:14:38.990Z,5.00
2018-10-07T09:17:07.606Z,4.37
2018-10-07T09:19:36.112Z,6.20
2018-10-07T09:22:04.934Z,6.13
2018-10-07T09:24:33.609Z,5.30
2018-10-07T09:27:02.227Z,5.27
2018-10-07T09:29:30.875Z,4.77
2018-10-07T09:31:59.535Z,5.30
2018-10-07T09:34:28.078Z,4.80
2018-10-07T09:36:56.890Z,4.97
2018-10-07T09:39:25.522Z,4.87
2018-10-07T09:41:54.042Z,4.90
2018-10-07T09:44:23.311Z,4.73
2018-10-07T09:46:52.201Z,4.07
2018-10-07T09:49:20.990Z,4.00
2018-10-07T09:51:49.730Z,5.10
2018-10-07T09:54:18.346Z,4.43
2018-10-07T09:56:47.101Z,5.00
2018-10-07T09:59:15.806Z,5.10
2018-10-07T10:01:44.365Z,4.60
2018-10-07T10:04:13.022Z,4.47
2018-10-07T10:06:42.047Z,4.67
2018-10-07T10:09:11.429Z,4.00
2018-10-07T10:11:40.010Z,5.00
2018-10-07T10:14:08.975Z,4.70
2018-10-07T10:16:50.550Z,5.00
2018-10-07T10:19:24.722Z,4.40
2018-10-07T10:22:00.700Z,4.03
2018-10-07T10:24:48.566Z,4.37
2018-10-07T10:27:53.995Z,5.30
2018-10-07T10:30:29.518Z,5.03
2018-10-07T10:33:01.683Z,3.80
2018-10-07T10:35:55.234Z,4.57
2018-10-07T10:40:36.817Z,4.20
2018-10-07T10:43:15.817Z,5.17
2018-10-07T10:46:09.949Z,4.40
2018-10-07T10:49:07.501Z,5.17
2018-10-07T10:51:45.279Z,4.97
2018-10-07T10:54:18.081Z,4.30
2018-10-07T10:56:59.300Z,4.03
2018-10-07T11:00:32.763Z,3.72
2018-10-07T11:03:13.460Z,4.25
2018-10-07T11:06:05.560Z,5.12
2018-10-07T11:08:44.723Z,7.75
2018-10-07T11:11:29.940Z,4.70
2018-10-07T11:14:03.032Z,4.83
2018-10-07T11:16:42.841Z,5.47
2018-10-07T11:19:25.747Z,5.12
2018-10-07T11:22:04.614Z,5.10
2018-10-07T11:26:53.367Z,4.92
2018-10-07T11:29:49.973Z,3.27
2018-10-07T11:32:28.926Z,5.80
2018-10-07T11:36:07.169Z,4.33
2018-10-07T11:38:56.354Z,4.90
2018-10-07T11:41:48.818Z,4.53
2018-10-07T11:44:31.157Z,4.47
2018-10-07T11:47:08.485Z,4.85
2018-10-07T11:49:43.939Z,4.95
2018-10-07T11:52:23.702Z,3.72
2018-10-07T11:54:55.485Z,4.53
2018-10-07T11:57:24.064Z,4.50
2018-10-07T11:59:52.641Z,3.55
2018-10-07T12:02:22.196Z,4.78
2018-10-07T12:04:50.767Z,4.55
2018-10-07T12:07:19.611Z,4.03
2018-10-07T12:09:50.483Z,3.90
2018-10-07T12:12:20.130Z,3.90
2018-10-07T12:14:49.351Z,3.98
2018-10-07T12:17:18.838Z,3.67
2018-10-07T12:19:47.628Z,3.30
2018-10-07T12:22:16.453Z,3.65
2018-10-07T12:24:45.799Z,3.98
2018-10-07T12:27:14.316Z,3.33
2018-10-07T12:29:42.846Z,4.40
2018-10-07T12:32:11.404Z,3.45
2018-10-07T12:34:40.236Z,4.78
2018-10-07T12:37:09.287Z,3.92
2018-10-07T12:39:37.949Z,4.40
2018-10-07T12:42:07.424Z,3.90
2018-10-07T12:44:36.584Z,3.40
2018-10-07T12:47:05.591Z,4.05
2018-10-07T12:49:34.114Z,4.37
2018-10-07T12:52:02.770Z,4.22
2018-10-07T12:54:32.175Z,3.65
2018-10-07T12:57:00.835Z,3.80
2018-10-07T12:59:29.442Z,4.15
2018-10-07T13:01:58.296Z,4.15
2018-10-07T13:04:26.841Z,3.87
2018-10-07T13:06:55.560Z,4.12
2018-10-07T13:09:24.843Z,4.28
2018-10-07T13:11:54.098Z,3.72
2018-10-07T13:14:22.610Z,3.80
2018-10-07T13:16:51.210Z,3.70
2018-10-07T13:19:19.850Z,4.20
2018-10-07T13:21:48.618Z,4.17
2018-10-07T13:24:17.423Z,2.58
2018-10-07T13:26:46.202Z,2.70
2018-10-07T13:29:14.793Z,3.98
2018-10-07T13:31:43.417Z,4.17
2018-10-07T13:34:11.927Z,3.58
2018-10-07T13:36:40.546Z,3.50
2018-10-07T13:39:10.832Z,3.30
2018-10-07T13:41:40.015Z,3.85
2018-10-07T13:44:08.532Z,3.92
2018-10-07T13:46:37.329Z,3.95
2018-10-07T13:49:06.638Z,2.67
2018-10-07T13:51:35.405Z,3.77
2018-10-07T13:54:04.001Z,2.45
2018-10-07T13:56:33.035Z,4.08
2018-10-07T13:59:01.641Z,3.50
2018-10-07T14:01:30.271Z,3.95
2018-10-07T14:03:58.948Z,3.83
2018-10-07T14:06:27.648Z,3.92
2018-10-07T14:08:56.327Z,4.47
2018-10-07T14:11:24.949Z,4.97
2018-10-07T14:13:54.377Z,4.17
2018-10-07T14:16:23.165Z,4.42
2018-10-07T14:18:52.763Z,4.12
2018-10-07T14:21:21.637Z,4.37
2018-10-07T14:23:50.920Z,4.55
2018-10-07T14:26:19.451Z,4.08
2018-10-07T14:28:48.035Z,4.25
2018-10-07T14:31:17.386Z,4.33
2018-10-07T14:33:46.105Z,3.08
2018-10-07T14:36:15.638Z,4.08
2018-10-07T14:38:44.821Z,4.10
2018-10-07T14:41:13.541Z,4.95
2018-10-07T14:43:42.689Z,8.00
2018-10-07T14:46:11.817Z,4.30
2018-10-07T14:48:40.492Z,3.98
2018-10-07T14:51:09.196Z,3.80
2018-10-07T14:53:38.418Z,4.50
2018-10-07T14:56:07.075Z,4.45
2018-10-07T14:58:35.967Z,5.35
2018-10-07T15:01:04.584Z,4.20
2018-10-07T15:03:33.171Z,4.22
2018-10-07T15:06:02.032Z,4.37
2018-10-07T15:08:30.909Z,4.35
2018-10-07T15:10:59.699Z,4.12
2018-10-07T15:13:28.404Z,4.53
2018-10-07T15:15:57.750Z,3.83
2018-10-07T15:18:26.579Z,4.55
2018-10-07T15:20:55.166Z,4.50
2018-10-07T15:23:23.959Z,3.83
2018-10-07T15:25:52.814Z,3.80
2018-10-07T15:28:21.730Z,3.83
2018-10-07T15:30:50.967Z,4.63
2018-10-07T15:33:19.705Z,4.70
2018-10-07T15:35:48.423Z,4.30
2018-10-07T15:38:17.085Z,3.83
2018-10-07T15:40:46.402Z,4.37
2018-10-07T15:43:15.125Z,4.47
2018-10-07T15:45:44.070Z,4.60
2018-10-07T15:48:12.857Z,3.83
2018-10-07T15:50:41.557Z,3.22
2018-10-07T15:53:10.152Z,4.35
2018-10-07T15:55:39.426Z,4.00
2018-10-07T15:58:08.366Z,4.20
2018-10-07T16:00:37.988Z,5.00
2018-10-07T16:03:06.969Z,4.63
2018-10-07T16:05:35.714Z,4.60
2018-10-07T16:08:08.783Z,5.37
2018-10-07T16:10:38.747Z,4.93
2018-10-07T16:13:07.917Z,5.10
2018-10-07T16:15:36.922Z,5.10
2018-10-07T16:18:12.163Z,4.23
2018-10-07T16:20:41.469Z,4.07
2018-10-07T16:23:10.093Z,5.10
2018-10-07T16:25:39.344Z,3.60
2018-10-07T16:28:08.094Z,5.20
2018-10-07T16:30:36.738Z,3.53
2018-10-07T16:33:05.576Z,4.10
2018-10-07T16:35:34.263Z,2.77
2018-10-07T16:38:03.175Z,2.93
2018-10-07T16:40:31.974Z,5.77
2018-10-07T16:43:00.562Z,4.20
2018-10-07T16:45:29.367Z,4.60
2018-10-07T16:47:58.713Z,4.90
2018-10-07T16:50:27.896Z,6.50
2018-10-07T16:52:56.865Z,4.77
2018-10-07T16:55:25.529Z,6.83
2018-10-07T16:57:54.562Z,6.83
2018-10-07T17:00:24.209Z,5.53
2018-10-07T17:02:52.754Z,6.27
2018-10-07T17:05:21.421Z,6.30
2018-10-07T17:07:50.206Z,6.23
2018-10-07T17:10:19.491Z,7.13
2018-10-07T17:12:48.330Z,3.90
2018-10-07T17:15:17.247Z,4.73
2018-10-07T17:17:46.152Z,6.07
2018-10-07T17:20:14.741Z,5.10
2018-10-07T17:22:43.449Z,5.93
2018-10-07T17:25:12.082Z,6.03
2018-10-07T17:27:40.672Z,6.53
2018-10-07T17:30:09.428Z,4.90
2018-10-07T17:32:38.291Z,7.40
2018-10-07T17:35:06.832Z,7.60
2018-10-07T17:37:36.158Z,5.67
2018-10-07T17:40:04.783Z,5.07
2018-10-07T17:42:34.498Z,4.37
2018-10-07T17:45:03.202Z,8.83
2018-10-07T17:47:32.122Z,7.67
2018-10-07T17:50:00.750Z,10.97
2018-10-07T17:52:30.305Z,9.07
2018-10-07T17:54:58.968Z,6.27
2018-10-07T17:57:28.590Z,11.83
2018-10-07T17:59:57.671Z,13.43
2018-10-07T18:02:26.540Z,10.40
2018-10-07T18:04:55.203Z,11.50
2018-10-07T18:07:24.379Z,11.23
2018-10-07T18:09:53.462Z,13.50
2018-10-07T18:12:22.233Z,10.97
2018-10-07T18:14:50.926Z,11.73
2018-10-07T18:17:19.621Z,10.27
2018-10-07T18:19:48.661Z,9.90
2018-10-07T18:22:18.298Z,10.03
2018-10-07T18:24:47.056Z,12.77
2018-10-07T18:27:16.621Z,8.90
2018-10-07T18:29:45.467Z,8.50
2018-10-07T18:32:14.358Z,9.00
2018-10-07T18:34:43.513Z,12.10
2018-10-07T18:37:12.218Z,14.07
2018-10-07T18:39:41.130Z,10.43
2018-10-07T18:42:10.746Z,9.73
2018-10-07T18:44:40.295Z,15.07
2018-10-07T18:47:09.903Z,16.63
2018-10-07T18:49:38.830Z,10.37
2018-10-07T18:52:07.779Z,8.17
2018-10-07T18:54:37.401Z,7.83
2018-10-07T18:57:06.266Z,7.10
2018-10-07T18:59:35.442Z,5.90
2018-10-07T19:02:03.968Z,10.67
2018-10-07T19:04:32.515Z,15.87
2018-10-07T19:07:01.314Z,12.97
2018-10-07T19:09:30.770Z,12.23
2018-10-07T19:12:00.246Z,9.07
2018-10-07T19:14:28.858Z,7.37
2018-10-07T19:16:57.722Z,9.50
2018-10-07T19:19:26.377Z,8.00
2018-10-07T19:21:55.151Z,10.60
2018-10-07T19:24:24.342Z,9.60
2018-10-07T19:26:53.897Z,13.90
2018-10-07T19:29:22.767Z,18.50
2018-10-07T19:31:51.575Z,9.77
2018-10-07T19:34:20.269Z,13.53
2018-10-07T19:36:48.975Z,14.47
2018-10-07T19:39:17.534Z,15.20
2018-10-07T19:41:46.225Z,12.07
2018-10-07T19:44:15.459Z,10.70
2018-10-07T19:46:45.164Z,9.40
2018-10-07T19:49:13.904Z,11.57
2018-10-07T19:51:42.558Z,16.13
2018-10-07T19:54:11.477Z,13.90
2018-10-07T19:56:40.372Z,12.60
2018-10-07T19:59:09.053Z,9.30
2018-10-07T20:01:38.720Z,8.70
2018-10-07T20:04:08.297Z,9.23
2018-10-07T20:06:37.740Z,10.50
2018-10-07T20:09:08.719Z,13.97
2018-10-07T20:11:38.095Z,11.50
2018-10-07T20:14:07.032Z,14.90
2018-10-07T20:16:36.210Z,12.50
2018-10-07T20:19:05.575Z,14.20
2018-10-07T20:21:35.049Z,12.80
2018-10-07T20:24:04.166Z,8.53
2018-10-07T20:26:33.331Z,8.30
2018-10-07T20:29:03.094Z,8.80
2018-10-07T20:31:32.799Z,17.20
2018-10-07T20:34:01.863Z,15.97
2018-10-07T20:36:30.973Z,8.77
2018-10-07T20:38:59.950Z,15.43
2018-10-07T20:41:28.560Z,13.47
2018-10-07T20:43:58.117Z,9.23
2018-10-07T20:46:27.585Z,10.33
2018-10-07T20:48:56.230Z,8.43
2018-10-07T20:51:25.324Z,12.93
2018-10-07T20:53:54.236Z,16.47
2018-10-07T20:56:22.958Z,8.50
2018-10-07T20:58:51.706Z,7.90
2018-10-07T21:01:21.150Z,13.87
2018-10-07T21:03:49.912Z,14.00
2018-10-07T21:06:18.724Z,14.57
2018-10-07T21:08:47.502Z,15.80
2018-10-07T21:11:16.151Z,12.10
2018-10-07T21:13:44.919Z,13.70
2018-10-07T21:16:14.346Z,16.17
2018-10-07T21:18:43.534Z,14.63
2018-10-07T21:21:12.405Z,16.33
2018-10-07T21:23:41.058Z,15.30
2018-10-07T21:26:09.965Z,14.50
2018-10-07T21:28:39.169Z,14.37
2018-10-07T21:31:08.890Z,11.37
2018-10-07T21:33:37.547Z,12.37
2018-10-07T21:36:06.437Z,14.10
2018-10-07T21:38:35.425Z,17.00
2018-10-07T21:41:04.473Z,15.60
2018-10-07T21:43:33.239Z,15.43
2018-10-07T21:46:01.856Z,10.13
2018-10-07T21:48:30.683Z,14.57
2018-10-07T21:50:59.388Z,8.93
2018-10-07T21:53:28.361Z,8.03
2018-10-07T21:55:57.310Z,16.67
2018-10-07T21:58:25.923Z,10.27
2018-10-07T22:00:55.100Z,14.60
2018-10-07T22:03:23.991Z,16.90
2018-10-07T22:05:52.828Z,15.33
2018-10-07T22:08:21.430Z,13.90
2018-10-07T22:10:50.241Z,16.10
2018-10-07T22:13:19.431Z,14.30
2018-10-07T22:15:48.778Z,12.53
2018-10-07T22:18:17.510Z,14.53
2018-10-07T22:20:46.324Z,11.57
2018-10-07T22:23:15.718Z,10.03
2018-10-07T22:25:45.260Z,9.50
2018-10-07T22:28:13.799Z,9.73
2018-10-07T22:30:42.563Z,9.07
2018-10-07T22:33:11.970Z,11.73
2018-10-07T22:35:41.565Z,11.93
2018-10-07T22:38:10.964Z,8.10
2018-10-07T22:40:39.663Z,7.30
2018-10-07T22:43:08.263Z,16.07
2018-10-07T22:45:37.703Z,9.20
2018-10-07T22:48:06.340Z,8.07
2018-10-07T22:50:34.981Z,15.17
2018-10-07T22:53:03.732Z,13.87
2018-10-07T22:55:33.125Z,9.40
2018-10-07T22:58:01.789Z,7.17
2018-10-07T23:00:31.258Z,14.67
2018-10-07T23:02:59.937Z,9.10
2018-10-07T23:05:29.181Z,10.20
2018-10-07T23:07:58.252Z,16.87
2018-10-07T23:10:26.909Z,10.00
2018-10-07T23:12:56.467Z,14.33
2018-10-07T23:15:25.292Z,11.23
2018-10-07T23:17:54.434Z,11.20
2018-10-07T23:20:23.231Z,14.17
2018-10-07T23:22:52.589Z,17.50
2018-10-07T23:25:22.188Z,12.70
2018-10-07T23:27:51.658Z,12.07
2018-10-07T23:30:20.862Z,17.20
2018-10-07T23:32:49.490Z,15.27
2018-10-07T23:35:18.060Z,14.90
2018-10-07T23:37:46.759Z,10.80
2018-10-07T23:40:15.659Z,10.43
2018-10-07T23:42:44.458Z,9.67
2018-10-07T23:45:13.401Z,13.33
2018-10-07T23:47:42.177Z,13.07
2018-10-07T23:50:10.974Z,14.23
2018-10-07T23:52:40.343Z,11.93
2018-10-07T23:55:09.782Z,8.77
2018-10-07T23:57:38.459Z,11.37
